Time;durP1;ratioP1;P1;durP2;ratioP2;P2;SDS_P1;SDS_P2;PMS_P1;PMS_P2;Temp;Humidity;BMP_temperature;BMP_pressure;BME280_temperature;BME280_humidity;BME280_pressure;Samples;Min_cycle;Max_cycle;Signal;HPM_P1;HPM_P2
2021/08/26 00:07:23;;;;;;;0.10;0.10;;;;;;;19.61;67.18;101850.19;6246063;23;20024;-91
2021/08/26 00:09:50;;;;;;;0.10;0.10;;;;;;;19.65;66.54;101852.69;6248942;22;20039;-92
2021/08/26 00:12:18;;;;;;;0.10;0.10;;;;;;;19.63;66.38;101846.50;6247261;22;20057;-91
2021/08/26 00:14:44;;;;;;;0.10;0.10;;;;;;;19.59;66.29;101844.91;6247418;22;20040;-92
2021/08/26 00:17:11;;;;;;;0.10;0.10;;;;;;;19.48;66.38;101844.47;6245556;23;20008;-93
2021/08/26 00:19:38;;;;;;;0.88;0.88;;;;;;;19.49;66.26;101835.44;6247265;22;20016;-92
2021/08/26 00:22:05;;;;;;;0.00;0.00;;;;;;;19.43;66.04;101835.69;6245605;23;20005;-92
2021/08/26 00:24:32;;;;;;;0.08;0.08;;;;;;;19.35;65.89;101828.84;6247017;22;20004;-93
2021/08/26 00:26:58;;;;;;;0.10;0.10;;;;;;;19.43;65.88;101830.31;6246976;22;20407;-90
2021/08/26 00:29:24;;;;;;;0.10;0.10;;;;;;;19.43;65.61;101835.69;6246929;22;20422;-92
2021/08/26 00:31:51;;;;;;;0.10;0.10;;;;;;;19.49;65.65;101830.06;6247183;22;20000;-91
2021/08/26 00:34:17;;;;;;;0.10;0.10;;;;;;;19.45;65.51;101839.22;6247045;22;20039;-91
2021/08/26 00:36:44;;;;;;;0.10;0.10;;;;;;;19.46;64.99;101835.59;6246706;22;20375;-92
2021/08/26 00:39:10;;;;;;;0.10;0.10;;;;;;;19.53;64.96;101820.97;6247252;22;20004;-92
2021/08/26 00:41:37;;;;;;;0.10;0.10;;;;;;;19.57;65.10;101822.56;6246975;22;20313;-93
2021/08/26 00:44:04;;;;;;;0.10;0.10;;;;;;;19.54;64.85;101815.50;6247078;22;20015;-92
2021/08/26 00:46:30;;;;;;;2.30;0.77;;;;;;;19.55;64.40;101821.75;6245463;23;20016;-92
2021/08/26 00:48:57;;;;;;;0.10;0.10;;;;;;;19.58;64.29;101813.56;6247022;22;20442;-90
2021/08/26 00:51:23;;;;;;;0.10;0.10;;;;;;;19.58;64.06;101802.81;6246829;22;20023;-92
2021/08/26 00:53:51;;;;;;;0.43;0.43;;;;;;;19.53;63.74;101804.84;6246956;23;20008;-92
2021/08/26 00:56:18;;;;;;;0.10;0.10;;;;;;;19.58;63.75;101818.06;6246990;22;20011;-91
2021/08/26 00:58:46;;;;;;;0.10;0.10;;;;;;;19.41;63.16;101816.97;6247065;22;20004;-92
2021/08/26 01:01:16;;;;;;;0.20;0.20;;;;;;;19.55;63.91;101819.06;6246906;22;20066;-92
2021/08/26 01:06:35;;;;;;;0.15;0.15;;;;;;;19.54;62.99;101811.97;5091017;27;20418;-91
2021/08/26 01:09:04;;;;;;;0.10;0.10;;;;;;;19.43;62.33;101808.81;5069595;28;20031;-91
2021/08/26 01:11:35;;;;;;;0.03;0.03;;;;;;;19.59;62.45;101809.94;5054265;28;20465;-93
2021/08/26 01:14:04;;;;;;;0.17;0.17;;;;;;;19.36;60.87;101808.22;5050970;28;20380;-92
2021/08/26 01:16:34;;;;;;;0.10;0.10;;;;;;;19.43;60.62;101792.69;5050449;28;20302;-93
2021/08/26 01:19:01;;;;;;;0.10;0.10;;;;;;;19.38;60.87;101793.78;5049389;28;20028;-92
2021/08/26 01:21:27;;;;;;;0.10;0.10;;;;;;;19.30;60.15;101795.94;5050690;28;20064;-92
2021/08/26 01:23:59;;;;;;;0.10;0.10;;;;;;;19.35;59.16;101788.56;5050453;28;20039;-91
2021/08/26 01:29:13;;;;;;;0.10;0.10;;;;;;;19.22;58.34;101781.94;5091093;27;20396;-92
2021/08/26 01:31:40;;;;;;;0.10;0.10;;;;;;;19.37;59.32;101783.09;5053067;28;20388;-93
2021/08/26 01:34:07;;;;;;;1.13;0.50;;;;;;;19.24;58.37;101782.75;5051330;28;20033;-90
2021/08/26 01:36:34;;;;;;;0.10;0.10;;;;;;;19.18;58.13;101794.59;5050723;28;20029;-93
2021/08/26 01:39:04;;;;;;;0.10;0.10;;;;;;;19.14;57.83;101782.25;5050898;28;20476;-93
2021/08/26 01:41:39;;;;;;;0.10;0.10;;;;;;;19.29;57.74;101774.47;5050949;28;20507;-94
2021/08/26 01:44:06;;;;;;;0.10;0.10;;;;;;;19.34;57.72;101780.53;5050713;28;20026;-93
2021/08/26 01:46:33;;;;;;;0.10;0.10;;;;;;;19.32;57.50;101775.22;5050971;28;20033;-92
2021/08/26 01:48:59;;;;;;;4.68;0.75;;;;;;;19.28;57.51;101779.00;5050254;28;20472;-92
2021/08/26 01:51:26;;;;;;;0.22;0.22;;;;;;;19.08;56.96;101775.31;5050806;28;20033;-94
2021/08/26 01:53:52;;;;;;;0.20;0.20;;;;;;;19.24;56.41;101763.94;5050962;28;20025;-93
2021/08/26 01:56:18;;;;;;;0.10;0.10;;;;;;;19.18;56.34;101762.38;5051025;28;20076;-93
2021/08/26 01:58:45;;;;;;;0.00;0.00;;;;;;;19.25;56.35;101779.09;5056245;28;20036;-91
2021/08/26 02:01:11;;;;;;;0.10;0.10;;;;;;;19.13;55.55;101769.75;5058292;28;20082;-93
2021/08/26 02:03:38;;;;;;;0.10;0.10;;;;;;;19.19;56.22;101769.50;5051354;28;20482;-93
2021/08/26 02:06:04;;;;;;;0.20;0.20;;;;;;;19.24;56.60;101772.88;5050780;28;20040;-93
2021/08/26 02:08:31;;;;;;;0.38;0.38;;;;;;;19.26;55.59;101763.88;5050144;28;20033;-93
2021/08/26 02:10:57;;;;;;;0.30;0.30;;;;;;;19.13;55.45;101774.22;5050239;28;20060;-93
2021/08/26 02:13:23;;;;;;;0.10;0.10;;;;;;;19.23;56.13;101764.88;5050326;28;20459;-94
2021/08/26 02:15:50;;;;;;;2.47;2.25;;;;;;;19.15;56.17;101767.88;5050195;28;20044;-93
2021/08/26 02:18:16;;;;;;;0.57;0.57;;;;;;;19.19;56.40;101761.44;5050438;28;20038;-93
2021/08/26 02:20:42;;;;;;;0.35;0.35;;;;;;;19.12;56.96;101773.38;5049692;28;20035;-93
2021/08/26 02:23:09;;;;;;;0.52;0.52;;;;;;;19.06;57.58;101769.13;5050732;28;20025;-94
2021/08/26 02:25:35;;;;;;;0.10;0.10;;;;;;;19.00;57.98;101768.50;5050124;28;20025;-93
2021/08/26 02:28:02;;;;;;;2.15;0.80;;;;;;;19.06;58.03;101763.75;5049973;28;20040;-94
2021/08/26 02:30:28;;;;;;;0.10;0.10;;;;;;;19.13;58.12;101771.53;5049891;28;20033;-93
2021/08/26 02:32:54;;;;;;;0.10;0.10;;;;;;;19.06;58.16;101769.13;5051061;28;20121;-92
2021/08/26 02:35:21;;;;;;;0.05;0.05;;;;;;;19.20;58.13;101765.00;5051025;28;20057;-93
2021/08/26 02:37:47;;;;;;;0.10;0.10;;;;;;;19.28;58.01;101772.72;5049641;28;20112;-94
2021/08/26 02:40:14;;;;;;;0.10;0.10;;;;;;;19.12;58.34;101775.19;5038101;28;20076;-94
2021/08/26 02:42:40;;;;;;;0.28;0.28;;;;;;;19.13;58.33;101775.13;5036475;28;20435;-93
2021/08/26 02:45:07;;;;;;;0.10;0.10;;;;;;;19.20;58.21;101765.88;5036602;28;20389;-93
2021/08/26 02:47:33;;;;;;;0.20;0.20;;;;;;;19.19;58.14;101763.22;5036509;28;20030;-94
2021/08/26 02:50:00;;;;;;;0.10;0.10;;;;;;;19.13;58.32;101764.38;5035924;28;20026;-95
2021/08/26 02:52:26;;;;;;;0.10;0.10;;;;;;;19.11;58.65;101757.31;5036322;28;20515;-95
2021/08/26 02:54:52;;;;;;;0.50;0.50;;;;;;;19.19;58.45;101763.22;5036527;28;20503;-96
2021/08/26 02:57:19;;;;;;;0.10;0.10;;;;;;;19.23;58.50;101762.19;5035144;28;20038;-93
2021/08/26 02:59:45;;;;;;;0.20;0.20;;;;;;;19.18;58.57;101758.81;5036178;28;20061;-96
2021/08/26 03:02:12;;;;;;;0.10;0.10;;;;;;;19.12;58.07;101762.63;5036107;28;20033;-94
2021/08/26 03:04:38;;;;;;;0.10;0.10;;;;;;;19.26;58.18;101758.50;5035967;28;20112;-95
2021/08/26 03:07:04;;;;;;;0.10;0.10;;;;;;;19.32;58.23;101763.63;5036665;28;20079;-93
2021/08/26 03:09:30;;;;;;;0.40;0.40;;;;;;;19.28;58.38;101762.88;5036310;28;20033;-94
2021/08/26 03:11:57;;;;;;;0.10;0.10;;;;;;;19.24;57.20;101758.56;5036312;28;20051;-96
2021/08/26 03:14:23;;;;;;;0.10;0.10;;;;;;;19.17;56.95;101754.38;5035953;28;20484;-95
2021/08/26 03:16:49;;;;;;;0.10;0.10;;;;;;;19.35;57.16;101759.00;5036016;28;20032;-94
2021/08/26 03:19:16;;;;;;;0.17;0.17;;;;;;;19.29;56.69;101764.63;5035785;28;20065;-94
2021/08/26 03:21:42;;;;;;;0.10;0.10;;;;;;;19.08;56.15;101761.88;5036035;28;20041;-95
2021/08/26 03:24:09;;;;;;;0.32;0.32;;;;;;;19.27;56.73;101761.13;5036135;28;20029;-95
2021/08/26 03:26:35;;;;;;;1.02;0.95;;;;;;;19.29;55.84;101753.88;5035938;28;20042;-95
2021/08/26 03:29:02;;;;;;;0.45;0.45;;;;;;;19.37;56.55;101757.09;5035712;28;20041;-95
2021/08/26 03:31:28;;;;;;;0.10;0.10;;;;;;;19.42;56.61;101764.09;5035354;28;20025;-92
2021/08/26 03:33:54;;;;;;;0.10;0.10;;;;;;;19.40;56.58;101750.72;5035701;28;20031;-96
2021/08/26 03:36:21;;;;;;;0.10;0.10;;;;;;;19.32;55.95;101753.72;5035590;28;20079;-94
2021/08/26 03:38:47;;;;;;;0.82;0.82;;;;;;;19.32;56.72;101758.25;5035753;28;20072;-94
2021/08/26 03:41:13;;;;;;;0.10;0.10;;;;;;;19.36;56.73;101757.16;5035468;28;20496;-95
2021/08/26 03:43:39;;;;;;;0.10;0.10;;;;;;;19.30;56.71;101749.34;5035787;28;20026;-94
2021/08/26 03:46:06;;;;;;;1.20;1.10;;;;;;;19.29;56.71;101751.19;5035710;28;20104;-94
2021/08/26 03:48:32;;;;;;;1.17;0.70;;;;;;;19.31;57.23;101751.13;5034229;28;20092;-93
2021/08/26 03:50:59;;;;;;;0.00;0.00;;;;;;;19.29;56.74;101748.50;5035196;28;20424;-95
2021/08/26 03:53:26;;;;;;;0.10;0.10;;;;;;;19.28;56.79;101752.13;5035137;28;20532;-95
2021/08/26 03:55:53;;;;;;;0.10;0.10;;;;;;;19.38;56.92;101750.78;5035323;28;20033;-96
2021/08/26 03:58:19;;;;;;;0.10;0.10;;;;;;;19.38;57.24;101741.84;5035083;28;20396;-95
2021/08/26 04:00:45;;;;;;;0.22;0.22;;;;;;;19.39;57.02;101749.84;5034988;28;20452;-95
2021/08/26 04:03:11;;;;;;;0.10;0.10;;;;;;;19.37;57.08;101748.16;5017074;28;20036;-96
2021/08/26 04:05:37;;;;;;;0.10;0.10;;;;;;;19.37;57.07;101743.66;5035272;28;20061;-95
2021/08/26 04:08:04;;;;;;;0.10;0.10;;;;;;;19.39;57.05;101749.00;5034910;28;20400;-96
2021/08/26 04:10:31;;;;;;;0.10;0.10;;;;;;;19.39;57.27;101743.63;5035065;28;20033;-96
2021/08/26 04:12:57;;;;;;;0.10;0.10;;;;;;;19.38;57.27;101741.84;5034716;28;20029;-94
2021/08/26 04:15:23;;;;;;;0.10;0.10;;;;;;;19.40;57.25;101745.34;5035024;28;20092;-94
2021/08/26 04:17:49;;;;;;;0.10;0.10;;;;;;;19.40;57.42;101754.28;5034727;28;20022;-95
2021/08/26 04:20:16;;;;;;;1.85;1.75;;;;;;;19.37;56.89;101754.41;5034972;28;20112;-94
2021/08/26 04:22:42;;;;;;;0.00;0.00;;;;;;;19.46;57.23;101741.53;5034987;28;20033;-93
2021/08/26 04:25:09;;;;;;;0.10;0.10;;;;;;;19.44;56.81;101738.00;5034578;28;20030;-91
2021/08/26 04:27:36;;;;;;;0.10;0.10;;;;;;;19.44;56.94;101736.22;5034086;28;20465;-95
2021/08/26 04:30:05;;;;;;;0.10;0.10;;;;;;;19.46;56.94;101745.06;5034434;28;20080;-96
2021/08/26 04:32:31;;;;;;;0.10;0.10;;;;;;;19.44;56.92;101755.03;5034608;28;20087;-95
2021/08/26 04:34:57;;;;;;;0.03;0.03;;;;;;;19.41;56.79;101741.72;5035043;28;20033;-94
2021/08/26 04:37:23;;;;;;;0.00;0.00;;;;;;;19.40;56.83;101746.22;5034377;28;20040;-94
2021/08/26 04:39:50;;;;;;;0.10;0.10;;;;;;;19.37;57.07;101748.16;5034971;28;20029;-94
2021/08/26 04:42:16;;;;;;;0.30;0.30;;;;;;;19.34;57.00;101751.88;5034449;28;20044;-95
2021/08/26 04:44:42;;;;;;;0.10;0.10;;;;;;;19.40;57.13;101746.22;5034130;28;20028;-94
2021/08/26 04:47:08;;;;;;;2.45;1.10;;;;;;;19.43;57.36;101738.94;5034531;28;20028;-93
2021/08/26 04:49:34;;;;;;;0.10;0.10;;;;;;;19.40;57.25;101732.78;5034512;28;20064;-93
2021/08/26 04:52:00;;;;;;;0.13;0.13;;;;;;;19.36;57.05;101728.47;5034240;28;20109;-95
2021/08/26 04:54:26;;;;;;;0.10;0.10;;;;;;;19.23;56.94;101727.25;5034551;28;20029;-94
2021/08/26 04:56:53;;;;;;;0.10;0.10;;;;;;;19.33;57.27;101725.91;5034388;28;20044;-95
2021/08/26 04:59:19;;;;;;;0.73;0.73;;;;;;;19.25;57.11;101730.75;5034057;28;20049;-94
2021/08/26 05:01:45;;;;;;;0.10;0.10;;;;;;;19.36;57.18;101727.59;5033632;28;20108;-95
2021/08/26 05:04:11;;;;;;;0.10;0.10;;;;;;;19.36;57.22;101724.91;5034813;28;20033;-93
2021/08/26 05:06:37;;;;;;;0.10;0.10;;;;;;;19.39;57.50;101725.66;5037254;28;20080;-93
2021/08/26 05:09:03;;;;;;;0.60;0.32;;;;;;;19.35;57.36;101729.44;5046947;28;20073;-91
2021/08/26 05:11:29;;;;;;;0.10;0.10;;;;;;;19.39;57.27;101728.34;5038229;28;20488;-94
2021/08/26 05:13:56;;;;;;;0.10;0.10;;;;;;;19.35;56.94;101725.84;5034340;28;20121;-95
2021/08/26 05:16:22;;;;;;;0.32;0.32;;;;;;;19.40;57.33;101727.41;5040757;28;20064;-91
2021/08/26 05:18:48;;;;;;;0.10;0.10;;;;;;;19.43;57.19;101728.19;5035724;28;20022;-94
2021/08/26 05:21:14;;;;;;;0.10;0.10;;;;;;;19.35;57.42;101729.44;5034003;28;20083;-92
2021/08/26 05:23:40;;;;;;;0.10;0.10;;;;;;;19.33;56.52;101731.28;5033560;28;20044;-95
2021/08/26 05:26:10;;;;;;;0.10;0.10;;;;;;;19.38;56.44;101734.66;5034156;28;20477;-95
2021/08/26 05:28:36;;;;;;;0.10;0.10;;;;;;;19.38;55.85;101728.41;5033039;28;20381;-95
2021/08/26 05:31:03;;;;;;;0.10;0.10;;;;;;;19.44;56.29;101724.56;5033626;28;20049;-93
2021/08/26 05:33:29;;;;;;;0.10;0.10;;;;;;;19.49;56.36;101727.94;5033907;28;20025;-95
2021/08/26 05:35:55;;;;;;;0.13;0.13;;;;;;;19.53;56.34;101729.56;5032888;28;20039;-95
2021/08/26 05:38:21;;;;;;;1.15;1.02;;;;;;;19.37;56.18;101727.53;5033658;28;20053;-95
2021/08/26 05:40:47;;;;;;;0.10;0.10;;;;;;;19.48;56.14;101726.22;5033485;28;20104;-96
2021/08/26 05:43:13;;;;;;;0.15;0.15;;;;;;;19.36;56.34;101728.47;5033623;28;20030;-95
2021/08/26 05:45:39;;;;;;;0.10;0.10;;;;;;;19.48;56.32;101726.22;5033741;28;20025;-95
2021/08/26 05:48:06;;;;;;;0.10;0.10;;;;;;;19.36;56.48;101725.78;5033575;28;20555;-95
2021/08/26 05:50:32;;;;;;;0.10;0.10;;;;;;;19.38;56.18;101726.59;5033433;28;20087;-95
2021/08/26 05:52:59;;;;;;;0.10;0.10;;;;;;;19.28;56.22;101724.34;5016162;28;20033;-96
2021/08/26 05:55:31;;;;;;;0.30;0.30;;;;;;;19.48;56.10;101726.22;5032050;28;20029;-95
2021/08/26 05:57:57;;;;;;;0.10;0.10;;;;;;;19.47;56.28;101737.91;5032434;28;20033;-96
2021/08/26 06:00:23;;;;;;;0.10;0.10;;;;;;;19.48;56.12;101731.59;5033234;28;20030;-94
2021/08/26 06:02:49;;;;;;;0.10;0.10;;;;;;;19.48;56.11;101727.06;5031976;28;20038;-95
2021/08/26 06:05:16;;;;;;;0.30;0.30;;;;;;;19.54;56.22;101724.13;5033345;28;20033;-96
2021/08/26 06:07:43;;;;;;;0.10;0.10;;;;;;;19.54;55.90;101729.50;5033236;28;20041;-96
2021/08/26 06:10:10;;;;;;;0.10;0.10;;;;;;;19.61;56.10;101731.91;5033813;28;20464;-93
2021/08/26 06:12:41;;;;;;;0.10;0.10;;;;;;;19.57;55.35;101731.19;5033210;28;20033;-95
2021/08/26 06:15:10;;;;;;;0.10;0.10;;;;;;;19.64;55.71;101727.28;5035894;28;20078;-96
2021/08/26 06:17:36;;;;;;;0.03;0.03;;;;;;;19.65;55.49;101734.41;5037133;28;20534;-96
2021/08/26 06:20:05;;;;;;;1.30;1.27;;;;;;;19.67;55.21;101726.28;5036904;28;20033;-95
2021/08/26 06:22:32;;;;;;;0.20;0.20;;;;;;;19.74;55.33;101725.06;5037116;28;20441;-93
2021/08/26 06:24:58;;;;;;;0.10;0.10;;;;;;;19.62;55.45;101726.47;5037003;28;20033;-96
2021/08/26 06:27:25;;;;;;;0.10;0.10;;;;;;;19.76;55.40;101733.06;5036915;28;20068;-96
2021/08/26 06:29:51;;;;;;;0.10;0.10;;;;;;;19.69;55.07;101729.78;5037111;28;20053;-95
2021/08/26 06:32:17;;;;;;;0.10;0.10;;;;;;;19.75;55.28;101728.63;5019284;28;20040;-96
2021/08/26 06:34:44;;;;;;;0.10;0.10;;;;;;;19.76;54.88;101735.75;5036791;28;20028;-95
2021/08/26 06:37:12;;;;;;;0.10;0.10;;;;;;;19.47;54.89;101732.53;5036628;28;20059;-96
2021/08/26 06:39:38;;;;;;;0.63;0.63;;;;;;;19.62;55.50;101734.53;5035511;28;20029;-95
2021/08/26 06:42:05;;;;;;;0.10;0.10;;;;;;;19.81;55.53;101740.00;5036385;28;20056;-96
2021/08/26 06:44:31;;;;;;;0.10;0.10;;;;;;;19.86;55.74;101731.72;5036501;28;20075;-94
2021/08/26 06:46:57;;;;;;;0.95;0.95;;;;;;;19.72;55.12;101717.03;5036243;28;20480;-95
2021/08/26 06:49:23;;;;;;;0.08;0.08;;;;;;;19.65;55.19;101729.03;5036993;28;20033;-95
2021/08/26 06:51:50;;;;;;;0.10;0.10;;;;;;;19.85;55.17;101729.97;5036602;28;20030;-96
2021/08/26 06:54:17;;;;;;;1.33;1.27;;;;;;;19.72;54.83;101729.63;5019794;28;20038;-96
2021/08/26 06:56:43;;;;;;;0.10;0.10;;;;;;;19.91;54.72;101735.06;5036523;28;20064;-95
2021/08/26 06:59:09;;;;;;;0.10;0.10;;;;;;;19.87;54.87;101728.97;5036474;28;20108;-95
2021/08/26 07:01:35;;;;;;;0.10;0.10;;;;;;;19.95;54.67;101736.69;5036259;28;20392;-96
2021/08/26 07:04:01;;;;;;;0.10;0.10;;;;;;;20.06;54.31;101743.41;5036620;28;20033;-96
2021/08/26 07:06:28;;;;;;;0.75;0.75;;;;;;;19.78;54.58;101745.47;5038900;28;20048;-96
2021/08/26 07:08:55;;;;;;;0.17;0.17;;;;;;;19.29;54.75;101737.75;5041177;28;20029;-96
2021/08/26 07:11:21;;;;;;;0.10;0.10;;;;;;;19.84;54.33;101733.63;5040853;28;20119;-96
2021/08/26 07:13:47;;;;;;;0.00;0.00;;;;;;;19.86;54.22;101726.34;5038875;28;20029;-96
2021/08/26 07:16:14;;;;;;;0.10;0.10;;;;;;;19.94;54.35;101734.06;5037664;28;20112;-96
2021/08/26 07:18:40;;;;;;;0.10;0.10;;;;;;;20.03;53.98;101730.97;5036811;28;20034;-96
2021/08/26 07:21:06;;;;;;;0.22;0.22;;;;;;;20.13;54.08;101728.72;5037890;28;20029;-96
2021/08/26 07:23:32;;;;;;;0.10;0.10;;;;;;;20.09;54.00;101735.19;5039097;28;20034;-96
2021/08/26 07:25:59;;;;;;;0.30;0.30;;;;;;;20.28;54.08;101740.59;5037528;28;20034;-93
2021/08/26 07:28:26;;;;;;;0.10;0.10;;;;;;;20.30;53.82;101738.69;5039299;28;20046;-96
2021/08/26 07:30:52;;;;;;;0.10;0.10;;;;;;;20.17;53.41;101730.31;5039258;28;20036;-96
2021/08/26 07:33:19;;;;;;;0.10;0.10;;;;;;;20.13;54.00;101739.50;5039321;28;20055;-96
2021/08/26 07:35:45;;;;;;;1.30;1.20;;;;;;;20.20;54.09;101740.97;5038307;28;20464;-95
2021/08/26 07:38:14;;;;;;;0.85;0.75;;;;;;;20.11;54.43;101730.59;5037214;28;20029;-96
2021/08/26 07:40:42;;;;;;;0.10;0.10;;;;;;;19.76;55.86;101741.13;5038117;28;20052;-96
2021/08/26 07:43:08;;;;;;;0.10;0.10;;;;;;;19.64;56.18;101732.66;5038913;28;20029;-96
2021/08/26 07:45:34;;;;;;;0.10;0.10;;;;;;;19.62;56.74;101731.84;5037117;28;20039;-96
2021/08/26 07:48:05;;;;;;;0.10;0.10;;;;;;;19.62;56.93;101733.66;5038087;28;20041;-96
2021/08/26 07:50:31;;;;;;;0.10;0.10;;;;;;;19.73;57.18;101734.06;5037789;28;20488;-96
2021/08/26 07:52:58;;;;;;;0.20;0.20;;;;;;;19.79;57.72;101736.47;5036751;28;20411;-96
2021/08/26 07:55:24;;;;;;;0.98;0.95;;;;;;;19.79;57.96;101735.59;5037798;28;20056;-93
2021/08/26 07:57:50;;;;;;;0.38;0.38;;;;;;;20.17;57.13;101738.41;5036354;28;20136;-96
2021/08/26 08:00:17;;;;;;;0.40;0.40;;;;;;;20.22;57.47;101730.97;5038042;28;20029;-96
2021/08/26 08:02:43;;;;;;;0.10;0.10;;;;;;;20.35;57.30;101728.59;5037368;28;20037;-96
2021/08/26 08:05:10;;;;;;;0.25;0.25;;;;;;;20.50;57.16;101735.94;5039048;28;20380;-96
2021/08/26 08:07:44;;;;;;;0.10;0.10;;;;;;;20.51;55.10;101731.41;5040552;28;20477;-95
2021/08/26 08:10:18;;;;;;;0.10;0.10;;;;;;;20.40;53.62;101731.06;5040272;28;20029;-96
2021/08/26 08:12:44;;;;;;;0.10;0.10;;;;;;;20.73;54.61;101722.34;5043230;28;20052;-96
2021/08/26 08:15:11;;;;;;;0.10;0.10;;;;;;;20.79;53.92;101732.81;5041461;28;20033;-96
2021/08/26 08:17:37;;;;;;;0.05;0.05;;;;;;;20.89;53.48;101720.66;5041224;28;20471;-96
2021/08/26 08:20:08;;;;;;;0.10;0.10;;;;;;;20.85;52.37;101729.84;5043641;28;20033;-96
2021/08/26 08:22:38;;;;;;;0.15;0.15;;;;;;;20.91;52.59;101721.44;5040955;28;20021;-96
2021/08/26 08:25:19;;;;;;;0.20;0.20;;;;;;;21.03;53.04;101725.34;5045083;28;20026;-94
2021/08/26 08:27:49;;;;;;;0.10;0.10;;;;;;;20.93;53.14;101714.16;5046340;28;20056;-92
2021/08/26 08:30:16;;;;;;;0.10;0.10;;;;;;;21.13;52.67;101704.19;5048037;28;20045;-96
2021/08/26 08:32:42;;;;;;;0.00;0.00;;;;;;;21.29;52.78;101702.44;5045276;28;20044;-94
2021/08/26 08:35:10;;;;;;;0.08;0.08;;;;;;;21.30;51.85;101706.91;5043885;28;20044;-96
2021/08/26 08:37:36;;;;;;;0.10;0.10;;;;;;;21.38;51.83;101697.53;5039387;28;20041;-96
2021/08/26 08:40:02;;;;;;;0.10;0.10;;;;;;;21.26;50.58;101705.31;5039259;28;20376;-96
2021/08/26 08:42:32;;;;;;;0.52;0.40;;;;;;;21.31;51.04;101703.25;5038941;28;20164;-96
2021/08/26 08:45:01;;;;;;;0.10;0.10;;;;;;;21.30;50.06;101698.81;5046023;28;20032;-96
2021/08/26 08:47:35;;;;;;;0.10;0.10;;;;;;;21.37;50.32;101701.19;5042855;28;20048;-96
2021/08/26 08:50:03;;;;;;;0.10;0.10;;;;;;;21.28;50.27;101703.44;5044844;28;20041;-96
2021/08/26 08:52:39;;;;;;;0.20;0.20;;;;;;;21.40;49.99;101699.22;5049356;28;20037;-96
2021/08/26 08:55:08;;;;;;;0.28;0.28;;;;;;;21.40;50.14;101706.44;5055579;28;20060;-96
2021/08/26 08:57:37;;;;;;;0.50;0.50;;;;;;;21.46;50.34;101714.19;5050600;28;20037;-96
2021/08/26 09:00:11;;;;;;;0.10;0.10;;;;;;;21.39;49.22;101718.16;5048252;28;20044;-96
2021/08/26 09:03:01;;;;;;;0.22;0.22;;;;;;;21.49;49.52;101711.34;5043543;22;20077;-96
2021/08/26 09:05:48;;;;;;;1.67;1.58;;;;;;;21.49;49.57;101717.59;5004150;28;20045;-96
2021/08/26 09:08:16;;;;;;;0.03;0.03;;;;;;;21.45;49.75;101716.00;5006362;28;20050;-96
2021/08/26 09:10:47;;;;;;;0.10;0.10;;;;;;;21.28;49.52;101718.72;5020224;28;20026;-96
2021/08/26 09:13:35;;;;;;;0.10;0.10;;;;;;;21.31;50.30;101719.44;5032707;28;20061;-95
2021/08/26 09:16:02;;;;;;;0.10;0.10;;;;;;;20.84;54.79;101741.56;5045778;28;20053;-96
2021/08/26 09:18:30;;;;;;;0.10;0.10;;;;;;;20.42;55.81;101734.56;5023448;28;20072;-96
2021/08/26 09:34:41;;;;;;;0.10;0.10;;;;;;;21.14;52.61;101706.81;5129712;27;20409;-96
2021/08/26 09:37:28;;;;;;;0.10;0.10;;;;;;;21.41;52.44;101709.03;5130005;28;20348;-96
2021/08/26 09:40:05;;;;;;;0.10;0.10;;;;;;;21.53;51.54;101702.13;5128164;28;20054;-96
2021/08/26 09:42:31;;;;;;;0.10;0.10;;;;;;;21.73;52.17;101702.94;5124822;28;20032;-96
2021/08/26 09:45:32;;;;;;;0.10;0.10;;;;;;;22.17;50.96;101702.34;5131313;28;20106;-93
2021/08/26 09:48:11;;;;;;;0.10;0.10;;;;;;;22.18;49.47;101705.91;5133233;28;20065;-96
2021/08/26 09:51:34;;;;;;;0.10;0.10;;;;;;;22.33;48.97;101715.88;5099531;28;20051;-88
2021/08/26 09:54:30;;;;;;;0.10;0.10;;;;;;;22.07;49.46;101717.28;5137331;22;20051;-96
2021/08/26 09:57:26;;;;;;;0.10;0.10;;;;;;;21.87;50.29;101718.38;5131474;28;20036;-96
2021/08/26 10:03:02;;;;;;;0.25;0.25;;;;;;;21.33;52.89;101722.03;5104191;28;20142;-94
2021/08/26 10:05:29;;;;;;;0.10;0.10;;;;;;;21.06;52.59;101721.63;5096730;28;20033;-96
2021/08/26 10:07:56;;;;;;;0.10;0.10;;;;;;;21.13;52.65;101714.97;5097070;28;20036;-96
2021/08/26 10:10:23;;;;;;;0.25;0.25;;;;;;;21.26;52.69;101693.66;5094194;28;20035;-96
2021/08/26 10:12:50;;;;;;;3.72;1.20;;;;;;;21.50;52.29;101703.16;5094997;28;20436;-96
2021/08/26 10:15:19;;;;;;;0.10;0.10;;;;;;;21.58;51.79;101701.91;5096253;28;20032;-96
2021/08/26 10:17:46;;;;;;;0.10;0.10;;;;;;;21.84;51.53;101705.91;5096094;28;20058;-94
2021/08/26 10:20:41;;;;;;;0.10;0.10;;;;;;;21.94;51.60;101706.28;5107290;22;20029;-96
2021/08/26 10:23:13;;;;;;;0.13;0.13;;;;;;;22.16;50.64;101703.28;5083742;28;20090;-93
2021/08/26 10:25:56;;;;;;;0.10;0.10;;;;;;;22.09;49.46;101709.97;5087919;28;20484;-95
2021/08/26 10:28:23;;;;;;;0.40;0.40;;;;;;;22.32;50.65;101715.94;5080026;28;20040;-96
2021/08/26 10:30:50;;;;;;;3.30;1.50;;;;;;;22.44;50.68;101713.47;5067780;28;20053;-91
2021/08/26 10:33:35;;;;;;;0.10;0.10;;;;;;;22.53;50.26;101717.47;5060028;28;20033;-95
2021/08/26 10:36:05;;;;;;;0.00;0.00;;;;;;;22.67;50.22;101718.50;5045439;28;20029;-96
2021/08/26 10:38:35;;;;;;;0.22;0.22;;;;;;;22.52;49.76;101721.13;5043016;28;20026;-96
2021/08/26 10:44:01;;;;;;;0.10;0.10;;;;;;;22.25;50.46;101715.41;5090871;27;20410;-91
2021/08/26 10:46:54;;;;;;;0.20;0.20;;;;;;;22.26;50.26;101727.97;5070302;28;20031;-90
2021/08/26 10:49:24;;;;;;;0.10;0.10;;;;;;;22.19;50.78;101727.41;5070198;28;20036;-89
2021/08/26 10:52:39;;;;;;;0.88;0.30;;;;;;;22.31;50.89;101723.16;5054774;28;20072;-91
2021/08/26 10:56:34;;;;;;;0.10;0.10;;;;;;;22.25;50.72;101716.28;5048253;28;20120;-90
2021/08/26 11:00:33;;;;;;;0.20;0.20;;;;;;;22.06;50.69;101723.66;4992334;28;20038;-89
2021/08/26 11:04:45;;;;;;;;;;;;;;;;;;;;;
2021/08/26 11:06:10;;;;;;;0.17;0.17;;;;;;;21.97;50.57;101720.50;5009658;28;20080;-91
2021/08/26 11:09:19;;;;;;;0.10;0.10;;;;;;;22.18;50.22;101709.50;5019370;28;20038;-90
2021/08/26 11:12:40;;;;;;;0.10;0.10;;;;;;;22.32;49.81;101716.81;5034886;28;20371;-90
2021/08/26 11:15:37;;;;;;;3.20;1.48;;;;;;;22.44;48.73;101720.69;5021980;28;20083;-90
2021/08/26 11:18:52;;;;;;;0.10;0.10;;;;;;;22.65;48.90;101717.72;5049558;28;20075;-91
2021/08/26 11:27:20;;;;;;;0.15;0.15;;;;;;;21.29;54.82;101732.09;5030317;27;1819568;-90
2021/08/26 11:29:48;;;;;;;0.05;0.05;;;;;;;20.93;56.74;101733.00;5090942;28;20032;-90
2021/08/26 11:32:25;;;;;;;0.10;0.10;;;;;;;20.93;56.50;101724.91;5072044;28;20060;-89
2021/08/26 11:34:59;;;;;;;0.10;0.10;;;;;;;20.84;57.79;101720.00;5070798;28;20029;-90
2021/08/26 11:37:36;;;;;;;0.25;0.25;;;;;;;20.87;57.78;101727.06;5070582;28;20032;-91
2021/08/26 11:40:07;;;;;;;0.10;0.10;;;;;;;20.87;58.21;101727.06;5070668;28;20028;-89
2021/08/26 11:42:40;;;;;;;0.10;0.10;;;;;;;20.84;57.72;101720.00;5070705;28;20036;-90
2021/08/26 11:45:29;;;;;;;0.95;0.95;;;;;;;21.09;56.67;101721.47;5070618;28;20029;-90
2021/08/26 11:50:39;;;;;;;0.10;0.10;;;;;;;20.99;56.60;101713.84;5085433;27;20445;-91
2021/08/26 11:53:08;;;;;;;0.10;0.10;;;;;;;20.83;56.59;101713.72;5070758;28;20039;-90
2021/08/26 11:55:40;;;;;;;0.65;0.65;;;;;;;21.02;56.90;101712.81;5070584;28;20519;-91
2021/08/26 11:58:12;;;;;;;0.10;0.10;;;;;;;21.23;56.76;101713.53;5071584;28;20060;-90
2021/08/26 12:00:41;;;;;;;0.10;0.10;;;;;;;21.32;57.64;101707.69;5070313;28;20546;-91
2021/08/26 12:03:12;;;;;;;0.50;0.50;;;;;;;21.57;56.58;101711.84;5070848;28;20467;-91
2021/08/26 12:05:46;;;;;;;0.40;0.40;;;;;;;21.84;55.74;101705.06;5071652;28;20090;-91
2021/08/26 12:08:24;;;;;;;0.10;0.10;;;;;;;21.87;54.74;101705.78;5070712;28;20043;-90
2021/08/26 12:11:11;;;;;;;0.10;0.10;;;;;;;22.00;54.96;101710.50;5102246;22;20028;-96
2021/08/26 12:14:06;;;;;;;0.65;0.55;;;;;;;22.04;53.74;101712.91;5071822;28;20040;-96
2021/08/26 12:16:40;;;;;;;0.10;0.10;;;;;;;22.13;52.98;101716.94;5071915;28;20037;-92
2021/08/26 12:19:34;;;;;;;0.10;0.10;;;;;;;22.33;52.90;101717.69;5074327;28;20047;-85
2021/08/26 12:22:43;;;;;;;0.10;0.10;;;;;;;22.09;50.81;101715.38;5154884;22;20053;-91